Time;durP1;ratioP1;P1;durP2;ratioP2;P2;SDS_P1;SDS_P2;PMS_P1;PMS_P2;Temp;Humidity;BMP_temperature;BMP_pressure;BME280_temperature;BME280_humidity;BME280_pressure;Samples;Min_cycle;Max_cycle;Signal;HPM_P1;HPM_P2
2023/03/11 00:00:43;;;;;;;940.53;862.23;;;1.80;99.90;;;;;;5015108;28;20549;-84
2023/03/11 00:03:12;;;;;;;936.77;858.27;;;1.80;99.90;;;;;;5015652;28;20521;-84
2023/03/11 00:05:41;;;;;;;932.03;854.53;;;1.80;99.90;;;;;;5015377;28;20559;-85
2023/03/11 00:08:13;;;;;;;933.73;855.63;;;1.90;99.90;;;;;;5015350;28;20453;-85
2023/03/11 00:10:42;;;;;;;937.67;860.00;;;1.80;99.90;;;;;;5015444;28;20457;-84
2023/03/11 00:13:11;;;;;;;938.30;861.20;;;1.80;99.90;;;;;;5015344;28;20508;-85
2023/03/11 00:15:39;;;;;;;939.83;863.03;;;1.70;99.90;;;;;;5015332;28;20564;-84
2023/03/11 00:18:07;;;;;;;931.93;855.40;;;1.60;99.90;;;;;;5015349;28;20539;-85
2023/03/11 00:20:35;;;;;;;924.20;849.40;;;1.20;99.90;;;;;;5015073;28;20453;-85
2023/03/11 00:23:04;;;;;;;922.30;848.30;;;1.00;99.90;;;;;;5014999;28;21008;-85
2023/03/11 00:25:33;;;;;;;918.00;844.70;;;1.10;99.90;;;;;;5014651;28;20528;-85
2023/03/11 00:28:00;;;;;;;920.63;847.33;;;1.10;99.90;;;;;;5015269;28;20492;-85
2023/03/11 00:30:27;;;;;;;925.17;852.37;;;1.10;99.90;;;;;;5014908;28;20900;-84
2023/03/11 00:32:57;;;;;;;921.43;848.93;;;1.10;99.90;;;;;;5015209;28;20449;-85
2023/03/11 00:35:27;;;;;;;918.67;846.37;;;1.20;99.90;;;;;;5014589;28;20477;-84
2023/03/11 00:37:56;;;;;;;917.90;846.00;;;1.30;99.90;;;;;;5014378;28;20449;-84
2023/03/11 00:40:26;;;;;;;927.50;855.90;;;1.30;99.90;;;;;;5014655;28;20480;-85
2023/03/11 00:42:56;;;;;;;919.63;848.03;;;1.30;99.90;;;;;;5014672;28;20508;-85
2023/03/11 00:45:23;;;;;;;921.40;850.10;;;1.40;99.90;;;;;;5014749;28;20473;-85
2023/03/11 00:47:50;;;;;;;914.57;842.87;;;1.30;99.90;;;;;;5014522;28;20539;-85
2023/03/11 00:50:19;;;;;;;923.77;852.50;;;1.30;99.90;;;;;;5014626;28;20537;-84
2023/03/11 00:52:47;;;;;;;920.63;849.43;;;1.30;99.90;;;;;;5014714;28;20457;-85
2023/03/11 00:55:21;;;;;;;916.23;845.43;;;1.40;99.90;;;;;;5014580;28;20469;-85
2023/03/11 00:57:47;;;;;;;911.13;840.47;;;1.50;99.90;;;;;;5014464;28;20997;-85
2023/03/11 01:00:18;;;;;;;923.77;852.70;;;1.50;99.90;;;;;;5014056;28;20928;-85
2023/03/11 01:02:46;;;;;;;919.93;848.90;;;1.30;99.90;;;;;;5013795;28;20477;-85
2023/03/11 01:05:14;;;;;;;922.53;850.93;;;1.40;99.90;;;;;;5014270;28;20512;-85
2023/03/11 01:07:41;;;;;;;929.63;857.43;;;1.40;99.90;;;;;;5014183;28;20460;-85
2023/03/11 01:10:10;;;;;;;926.70;854.50;;;1.50;99.90;;;;;;4980328;28;20468;-85
2023/03/11 01:12:36;;;;;;;931.90;860.07;;;1.50;99.90;;;;;;5014355;28;20537;-84
2023/03/11 01:15:05;;;;;;;922.43;850.93;;;1.60;99.90;;;;;;5014066;28;20555;-85
2023/03/11 01:17:34;;;;;;;933.57;861.67;;;1.50;99.90;;;;;;5013841;28;20864;-84
2023/03/11 01:20:04;;;;;;;926.27;854.40;;;1.40;99.90;;;;;;5014030;28;20610;-85
2023/03/11 01:22:31;;;;;;;923.20;851.27;;;1.40;99.90;;;;;;5014129;28;20571;-85
2023/03/11 01:24:57;;;;;;;937.73;864.93;;;1.30;99.90;;;;;;4996277;28;20851;-85
2023/03/11 01:27:25;;;;;;;944.87;871.17;;;1.30;99.90;;;;;;5013883;28;20453;-85
2023/03/11 01:29:52;;;;;;;953.50;879.20;;;1.20;99.90;;;;;;5013296;28;20453;-85
2023/03/11 01:32:19;;;;;;;953.90;880.20;;;1.20;99.90;;;;;;5013597;28;20484;-85
2023/03/11 01:34:47;;;;;;;953.53;879.63;;;1.10;99.90;;;;;;5013853;28;20476;-84
2023/03/11 01:37:14;;;;;;;960.50;885.80;;;1.10;99.90;;;;;;5013458;28;20493;-84
2023/03/11 01:39:41;;;;;;;957.90;883.90;;;1.00;99.90;;;;;;5013483;28;21008;-85
2023/03/11 01:42:08;;;;;;;965.40;892.00;;;1.20;99.90;;;;;;4995897;28;20473;-84
2023/03/11 01:44:36;;;;;;;963.57;890.07;;;1.20;99.90;;;;;;5013588;28;20552;-84
2023/03/11 01:47:32;;;;;;;966.90;893.50;;;1.00;99.90;;;;;;5013526;28;20523;-84
2023/03/11 01:50:02;;;;;;;961.93;888.73;;;1.00;99.90;;;;;;5013195;28;20984;-84
2023/03/11 01:52:29;;;;;;;960.60;887.30;;;0.80;99.90;;;;;;5013234;28;20477;-85
2023/03/11 01:54:57;;;;;;;963.90;890.50;;;1.20;99.90;;;;;;4995686;28;20477;-84
2023/03/11 01:57:24;;;;;;;969.63;896.13;;;0.80;99.90;;;;;;5013363;28;20481;-85
2023/03/11 01:59:55;;;;;;;978.90;905.40;;;0.70;99.90;;;;;;5012909;28;20471;-84
2023/03/11 02:02:27;;;;;;;964.00;891.10;;;0.60;99.90;;;;;;5013238;28;20531;-84
2023/03/11 02:04:55;;;;;;;971.80;899.00;;;0.70;99.90;;;;;;5013009;28;20551;-84
2023/03/11 02:07:23;;;;;;;969.87;897.37;;;0.60;99.90;;;;;;5013357;28;20532;-84
2023/03/11 02:09:50;;;;;;;972.90;899.50;;;0.60;99.90;;;;;;4995599;28;20537;-84
2023/03/11 02:12:18;;;;;;;969.60;896.40;;;0.60;99.90;;;;;;5013074;28;20488;-85
2023/03/11 02:14:48;;;;;;;968.57;895.67;;;0.70;99.90;;;;;;5012851;28;20481;-84
2023/03/11 02:17:17;;;;;;;975.53;903.03;;;0.70;99.90;;;;;;5012760;28;20464;-84
2023/03/11 02:20:03;;;;;;;977.00;905.10;;;0.80;99.90;;;;;;5012629;28;20551;-84
2023/03/11 02:22:33;;;;;;;971.40;899.50;;;0.80;99.90;;;;;;5012650;28;20515;-84
2023/03/11 02:25:05;;;;;;;974.27;903.00;;;0.90;99.90;;;;;;5012962;28;20499;-83
2023/03/11 02:27:37;;;;;;;971.93;900.27;;;0.80;99.90;;;;;;5012870;28;20859;-83
2023/03/11 02:33:31;;;;;;;977.07;904.57;;;0.60;99.90;;;;;;5011288;28;21039;-83
2023/03/11 02:35:58;;;;;;;980.70;908.80;;;0.50;99.90;;;;;;4995066;28;20575;-83
2023/03/11 02:38:25;;;;;;;985.70;913.80;;;0.60;99.90;;;;;;4995108;28;20829;-83
2023/03/11 02:40:56;;;;;;;985.33;915.63;;;0.60;99.90;;;;;;5012580;28;20552;-83
2023/03/11 02:43:32;;;;;;;980.37;911.57;;;0.70;99.90;;;;;;5012963;28;20501;-83
2023/03/11 02:45:59;;;;;;;982.23;915.00;;;0.50;99.90;;;;;;5013046;28;20483;-83
2023/03/11 02:48:27;;;;;;;955.53;893.83;;;0.60;99.90;;;;;;5012501;28;20540;-83
2023/03/11 02:50:54;;;;;;;935.63;878.40;;;0.40;99.90;;;;;;5012183;28;20548;-84
2023/03/11 02:53:21;;;;;;;896.87;844.07;;;0.40;99.90;;;;;;5012545;28;20583;-83
2023/03/11 02:55:48;;;;;;;904.50;850.67;;;0.40;99.90;;;;;;4994872;28;20528;-83
2023/03/11 02:58:15;;;;;;;899.43;846.13;;;0.40;99.90;;;;;;5012339;28;20456;-83
2023/03/11 03:00:45;;;;;;;892.83;840.23;;;0.40;99.90;;;;;;5011703;28;20465;-84
2023/03/11 03:03:12;;;;;;;880.53;829.33;;;0.40;99.90;;;;;;5011692;28;20563;-83
2023/03/11 03:05:39;;;;;;;894.30;842.20;;;0.40;99.90;;;;;;5011557;28;20480;-83
2023/03/11 03:08:06;;;;;;;881.78;830.85;;;0.30;99.90;;;;;;5012367;28;20288;-83
2023/03/11 03:10:33;;;;;;;889.80;838.53;;;0.30;99.90;;;;;;4994746;28;20240;-83
2023/03/11 03:13:01;;;;;;;888.43;837.13;;;0.30;99.90;;;;;;5012526;28;20461;-83
2023/03/11 03:15:28;;;;;;;863.63;814.23;;;0.20;99.90;;;;;;5012143;28;20480;-83
2023/03/11 03:17:56;;;;;;;867.17;817.07;;;0.20;99.90;;;;;;5012319;28;20526;-83
2023/03/11 03:20:25;;;;;;;843.57;795.57;;;0.10;99.90;;;;;;5011726;28;21020;-83
2023/03/11 03:22:52;;;;;;;783.63;741.67;;;0.10;99.90;;;;;;5012202;28;20515;-83
2023/03/11 03:25:19;;;;;;;723.23;686.23;;;0.10;99.90;;;;;;4994264;28;20861;-83
2023/03/11 03:27:46;;;;;;;653.13;620.67;;;0.00;99.90;;;;;;5012103;28;20977;-83
2023/03/11 03:30:14;;;;;;;616.23;586.03;;;0.10;99.90;;;;;;5011916;28;20453;-83
2023/03/11 03:32:41;;;;;;;576.33;548.43;;;0.00;99.90;;;;;;5011992;28;20996;-83
2023/03/11 03:35:10;;;;;;;566.10;539.23;;;-0.10;99.90;;;;;;5011835;28;21048;-83
2023/03/11 03:37:38;;;;;;;562.70;536.40;;;-0.10;99.90;;;;;;4994464;28;20507;-83
2023/03/11 03:40:07;;;;;;;568.72;542.22;;;0.20;99.90;;;;;;5011922;28;20640;-86
2023/03/11 03:42:35;;;;;;;578.87;552.07;;;0.00;99.90;;;;;;5012000;28;20718;-86
2023/03/11 03:45:02;;;;;;;564.63;538.83;;;-0.20;99.90;;;;;;5012184;28;20476;-86
2023/03/11 03:47:29;;;;;;;551.70;526.90;;;-0.10;99.90;;;;;;5011912;28;20453;-86
2023/03/11 03:49:55;;;;;;;551.00;525.80;;;-0.10;99.90;;;;;;5011629;28;20456;-85
2023/03/11 03:52:24;;;;;;;534.23;510.33;;;0.00;99.90;;;;;;5011696;28;20467;-86
2023/03/11 03:54:51;;;;;;;534.47;510.63;;;0.10;99.90;;;;;;5011704;28;20479;-85
2023/03/11 03:57:18;;;;;;;496.10;474.53;;;0.00;99.90;;;;;;5011696;28;20457;-86
2023/03/11 03:59:45;;;;;;;499.20;477.50;;;0.20;99.90;;;;;;5011586;28;20523;-83
2023/03/11 04:02:15;;;;;;;480.57;460.17;;;0.20;99.90;;;;;;5011744;28;20489;-83
2023/03/11 04:04:42;;;;;;;480.30;459.70;;;0.10;99.90;;;;;;5011336;28;21372;-86
2023/03/11 04:07:09;;;;;;;468.90;448.90;;;0.40;99.90;;;;;;4994047;28;20198;-83
2023/03/11 04:09:42;;;;;;;474.07;453.67;;;0.30;99.90;;;;;;4994316;28;20904;-85
2023/03/11 04:12:13;;;;;;;460.03;440.00;;;0.20;99.90;;;;;;5011714;28;20531;-85
2023/03/11 04:14:40;;;;;;;482.87;461.60;;;0.20;99.90;;;;;;4996742;28;20460;-85
2023/03/11 04:17:08;;;;;;;479.17;458.27;;;0.20;99.90;;;;;;5015199;28;20953;-85
2023/03/11 04:19:35;;;;;;;446.75;427.75;;;0.10;99.90;;;;;;5014982;28;20456;-85
2023/03/11 04:22:02;;;;;;;450.43;431.40;;;0.10;99.90;;;;;;5015038;28;20198;-86
2023/03/11 04:24:29;;;;;;;448.40;429.47;;;0.00;99.90;;;;;;4981227;28;20519;-85
2023/03/11 04:26:58;;;;;;;453.37;434.27;;;0.10;99.90;;;;;;5014863;28;20500;-85
2023/03/11 04:29:25;;;;;;;437.80;419.50;;;0.30;99.90;;;;;;5014953;28;20456;-85
2023/03/11 04:31:52;;;;;;;463.30;444.00;;;0.00;99.90;;;;;;5014693;28;20483;-85
2023/03/11 04:34:19;;;;;;;484.97;464.27;;;-0.10;99.90;;;;;;5030918;23;20939;-78
2023/03/11 04:36:46;;;;;;;463.13;443.73;;;-0.10;99.90;;;;;;5014631;28;20496;-78
2023/03/11 04:39:14;;;;;;;470.50;450.90;;;-0.30;99.90;;;;;;5014591;28;20289;-78
2023/03/11 04:41:41;;;;;;;450.50;431.83;;;-0.30;99.90;;;;;;5014269;28;20460;-78
2023/03/11 04:44:09;;;;;;;451.10;432.20;;;-0.20;99.90;;;;;;5014462;28;20512;-78
2023/03/11 04:46:36;;;;;;;452.53;433.67;;;-0.20;99.90;;;;;;5014058;28;20562;-78
2023/03/11 04:49:03;;;;;;;466.80;447.20;;;-0.20;99.90;;;;;;5014263;28;20453;-78
2023/03/11 04:51:30;;;;;;;442.80;424.40;;;-0.30;99.90;;;;;;5013970;28;20460;-78
2023/03/11 04:53:57;;;;;;;424.17;406.67;;;-0.20;99.90;;;;;;5014282;28;20496;-78
2023/03/11 04:56:24;;;;;;;383.80;368.00;;;-0.20;99.90;;;;;;4996406;28;20222;-78
2023/03/11 04:58:51;;;;;;;403.40;386.70;;;-0.10;99.90;;;;;;5014341;28;20489;-78
2023/03/11 05:01:19;;;;;;;390.30;374.17;;;0.00;99.90;;;;;;5013829;28;20461;-78
2023/03/11 05:03:46;;;;;;;387.03;370.93;;;0.10;99.90;;;;;;5014009;28;20469;-78
2023/03/11 05:06:13;;;;;;;389.20;373.13;;;0.20;99.90;;;;;;4996744;28;20850;-80
2023/03/11 05:08:40;;;;;;;404.73;387.93;;;0.30;99.90;;;;;;5013926;28;20465;-81
2023/03/11 05:11:07;;;;;;;411.08;394.00;;;0.20;99.90;;;;;;5013701;28;20459;-81
2023/03/11 05:13:35;;;;;;;385.80;369.93;;;0.20;99.90;;;;;;4996781;28;20195;-80
2023/03/11 05:16:02;;;;;;;377.70;362.20;;;0.30;99.90;;;;;;5013922;28;20479;-80
2023/03/11 05:18:34;;;;;;;368.70;353.40;;;0.30;99.90;;;;;;5013883;28;20453;-80
2023/03/11 05:21:01;;;;;;;383.70;367.70;;;0.40;99.90;;;;;;5013576;28;20467;-80
2023/03/11 05:23:28;;;;;;;387.67;371.57;;;0.30;99.90;;;;;;5013697;28;20477;-80
2023/03/11 05:25:55;;;;;;;383.85;367.92;;;0.40;99.90;;;;;;5013498;28;20481;-80
2023/03/11 05:28:22;;;;;;;399.50;382.80;;;0.40;99.90;;;;;;4996462;28;20249;-80
2023/03/11 05:30:50;;;;;;;400.20;383.50;;;0.30;99.90;;;;;;5013379;28;20463;-80
2023/03/11 05:33:17;;;;;;;408.03;390.93;;;0.30;99.90;;;;;;5013203;28;20457;-80
2023/03/11 05:35:45;;;;;;;391.47;374.97;;;0.30;99.90;;;;;;5013473;28;20492;-81
2023/03/11 05:42:30;;;;;;;402.13;385.07;;;0.00;99.90;;;;;;4971655;28;20448;-80
2023/03/11 06:05:12;;;;;;;379.87;363.87;;;0.40;99.90;;;;;;4978670;28;20477;-81
2023/03/11 06:16:14;;;;;;;;;;;;;;;;;;;;;
2023/03/11 06:22:13;;;;;;;428.97;410.87;;;0.40;99.90;;;;;;4953663;28;20469;-78
2023/03/11 06:25:04;;;;;;;421.13;403.60;;;0.50;99.90;;;;;;4993217;28;21009;-78
2023/03/11 06:27:30;;;;;;;436.10;417.90;;;0.50;99.90;;;;;;4992593;28;20564;-78
2023/03/11 06:29:57;;;;;;;439.23;421.10;;;0.70;99.90;;;;;;4992736;28;20493;-77
2023/03/11 06:32:48;;;;;;;435.20;416.90;;;0.70;99.90;;;;;;4992844;28;20458;-85
2023/03/11 06:35:14;;;;;;;431.83;413.70;;;0.70;99.90;;;;;;4972669;28;20467;-78
2023/03/11 06:41:21;;;;;;;436.47;417.77;;;0.80;99.90;;;;;;4971929;28;21018;-77
2023/03/11 06:43:48;;;;;;;445.93;426.80;;;0.80;99.90;;;;;;4973430;28;20585;-77
2023/03/11 06:46:17;;;;;;;437.73;419.13;;;0.80;99.90;;;;;;4973361;28;20483;-77
2023/03/11 06:48:50;;;;;;;438.83;420.33;;;0.70;99.90;;;;;;4973406;28;20457;-76
2023/03/11 06:51:17;;;;;;;429.87;411.97;;;0.70;99.90;;;;;;4973283;28;20466;-77
2023/03/11 06:53:49;;;;;;;422.50;404.90;;;0.70;99.90;;;;;;4973807;28;20897;-77
2023/03/11 06:56:16;;;;;;;436.50;418.20;;;0.70;99.90;;;;;;4973216;28;20505;-77
2023/03/11 06:58:43;;;;;;;440.30;421.90;;;0.70;99.90;;;;;;4973216;28;20455;-77
2023/03/11 07:01:13;;;;;;;428.77;410.97;;;0.70;99.90;;;;;;4973020;28;20487;-77
2023/03/11 07:03:41;;;;;;;417.90;400.70;;;0.60;99.90;;;;;;4972984;28;20486;-77
2023/03/11 07:06:12;;;;;;;414.77;397.77;;;0.70;99.90;;;;;;4973015;28;20479;-76
2023/03/11 07:08:40;;;;;;;407.03;390.43;;;0.70;99.90;;;;;;4973270;28;20482;-76
2023/03/11 07:11:10;;;;;;;418.87;401.77;;;0.80;99.90;;;;;;4972752;28;20455;-77
2023/03/11 07:13:37;;;;;;;421.87;404.77;;;0.80;99.90;;;;;;4972737;28;20458;-77
2023/03/11 07:16:06;;;;;;;417.50;400.50;;;0.80;99.90;;;;;;4972698;28;20486;-77
2023/03/11 07:18:34;;;;;;;422.90;405.60;;;0.80;99.90;;;;;;4972857;28;20459;-77
2023/03/11 07:21:03;;;;;;;413.17;396.37;;;0.80;99.90;;;;;;4972862;28;20455;-77
2023/03/11 07:23:32;;;;;;;408.23;391.43;;;0.80;99.90;;;;;;4972935;28;20481;-77
2023/03/11 07:25:59;;;;;;;403.47;387.03;;;0.70;99.90;;;;;;4972721;28;20478;-77
2023/03/11 07:28:28;;;;;;;404.57;387.97;;;0.60;99.90;;;;;;4970942;28;20473;-77
2023/03/11 07:30:56;;;;;;;396.90;380.70;;;0.90;99.90;;;;;;4971423;28;20470;-77
2023/03/11 07:33:23;;;;;;;392.90;377.00;;;0.80;99.90;;;;;;4972783;28;20469;-76
2023/03/11 07:35:51;;;;;;;403.90;387.40;;;0.90;99.90;;;;;;4972637;28;21006;-77
2023/03/11 07:38:18;;;;;;;403.60;387.20;;;0.90;99.90;;;;;;4972219;28;20520;-76
2023/03/11 07:40:47;;;;;;;395.97;380.07;;;1.00;99.90;;;;;;4971654;28;20561;-77
2023/03/11 07:43:13;;;;;;;394.37;378.47;;;0.90;99.90;;;;;;4971171;28;20558;-77
2023/03/11 07:45:40;;;;;;;420.53;403.33;;;0.90;99.90;;;;;;4972286;28;20565;-77
2023/03/11 07:48:15;;;;;;;422.97;405.67;;;1.10;99.90;;;;;;4974479;28;20461;-77
2023/03/11 07:50:42;;;;;;;415.60;398.70;;;1.10;99.90;;;;;;4975314;28;20454;-77
2023/03/11 07:53:08;;;;;;;440.17;422.07;;;1.20;99.90;;;;;;4975015;28;20557;-77
2023/03/11 07:55:35;;;;;;;485.13;464.60;;;1.30;99.90;;;;;;4975920;28;21077;-77
2023/03/11 07:58:03;;;;;;;519.83;497.93;;;1.30;99.90;;;;;;4976074;28;20501;-77
2023/03/11 08:00:30;;;;;;;515.67;493.97;;;1.40;99.90;;;;;;4974956;28;20454;-77
2023/03/11 08:02:57;;;;;;;524.77;502.57;;;1.50;99.90;;;;;;4976058;28;20550;-77
2023/03/11 08:05:24;;;;;;;503.17;482.37;;;1.60;99.90;;;;;;4975819;28;21028;-77
2023/03/11 08:07:51;;;;;;;517.10;495.50;;;1.60;99.90;;;;;;4976237;28;20454;-77
2023/03/11 08:10:18;;;;;;;496.47;476.43;;;1.70;99.90;;;;;;4975640;28;20462;-77
2023/03/11 08:12:44;;;;;;;494.63;474.57;;;1.80;99.90;;;;;;4976072;28;20834;-77
2023/03/11 08:15:15;;;;;;;528.67;506.10;;;1.90;99.90;;;;;;4976293;28;20834;-78
2023/03/11 08:17:42;;;;;;;541.80;518.27;;;1.90;99.90;;;;;;4976072;28;20458;-77
2023/03/11 08:20:13;;;;;;;528.93;506.33;;;2.20;99.90;;;;;;4974418;28;20462;-77
2023/03/11 08:22:40;;;;;;;522.57;500.40;;;2.20;99.90;;;;;;4971392;28;20475;-77
2023/03/11 08:25:11;;;;;;;531.93;509.13;;;2.10;99.90;;;;;;4956197;29;20488;-78
2023/03/11 08:27:37;;;;;;;534.67;511.50;;;2.20;99.90;;;;;;4956301;29;20459;-77
2023/03/11 08:30:05;;;;;;;532.00;508.90;;;2.30;99.90;;;;;;4955792;29;20463;-77
2023/03/11 08:32:33;;;;;;;540.87;517.27;;;2.20;99.90;;;;;;4955617;29;21164;-78
2023/03/11 08:35:00;;;;;;;468.33;449.47;;;2.50;99.90;;;;;;4955523;29;20472;-77
2023/03/11 08:37:27;;;;;;;510.60;489.17;;;2.50;99.90;;;;;;4956464;29;20829;-79
2023/03/11 08:39:54;;;;;;;516.57;494.80;;;2.60;99.90;;;;;;4955748;29;20840;-79
2023/03/11 08:42:21;;;;;;;506.13;485.17;;;2.70;99.90;;;;;;4922968;29;20918;-79
2023/03/11 08:44:48;;;;;;;504.83;483.93;;;2.60;99.90;;;;;;4954946;29;20579;-79
2023/03/11 08:47:15;;;;;;;474.87;455.57;;;2.80;99.90;;;;;;4955344;29;20464;-79
2023/03/11 08:49:43;;;;;;;418.80;402.50;;;2.90;99.90;;;;;;4954856;29;20503;-79
2023/03/11 08:52:10;;;;;;;464.50;446.10;;;3.10;99.90;;;;;;4955092;29;20594;-79
2023/03/11 08:54:37;;;;;;;422.73;406.63;;;3.30;99.90;;;;;;4955001;29;20534;-79
2023/03/11 08:57:04;;;;;;;433.43;416.77;;;3.50;99.90;;;;;;4955150;29;20806;-80
2023/03/11 08:59:31;;;;;;;412.37;396.87;;;3.90;99.90;;;;;;4954287;28;20836;-79
2023/03/11 09:01:59;;;;;;;415.10;399.50;;;3.90;99.90;;;;;;4955142;29;20456;-79
2023/03/11 09:04:26;;;;;;;452.60;434.90;;;4.30;99.90;;;;;;4955684;29;20480;-79
2023/03/11 09:06:54;;;;;;;432.47;415.73;;;4.70;99.90;;;;;;4955815;29;20546;-79
2023/03/11 09:09:21;;;;;;;441.07;423.77;;;4.70;99.90;;;;;;4955559;29;21054;-79
2023/03/11 09:11:48;;;;;;;453.13;434.67;;;4.80;99.90;;;;;;4958947;28;20866;-80
2023/03/11 09:14:15;;;;;;;459.20;441.70;;;5.30;99.90;;;;;;4959699;28;20227;-81
2023/03/11 09:16:41;;;;;;;460.10;442.63;;;5.50;99.90;;;;;;4967301;28;20554;-80
2023/03/11 09:19:09;;;;;;;437.53;421.13;;;5.70;99.90;;;;;;4974147;28;20559;-80
2023/03/11 09:21:36;;;;;;;430.93;415.23;;;6.20;99.90;;;;;;4963809;28;20462;-80
2023/03/11 09:24:06;;;;;;;393.27;379.37;;;6.30;99.90;;;;;;4954964;29;20466;-80
2023/03/11 09:26:34;;;;;;;374.33;361.33;;;6.30;98.20;;;;;;4956047;28;20484;-80
2023/03/11 09:29:01;;;;;;;334.43;323.13;;;6.70;97.70;;;;;;4959742;28;20491;-80
2023/03/11 09:31:27;;;;;;;300.27;290.27;;;6.50;92.50;;;;;;4966488;28;20479;-80
2023/03/11 09:33:55;;;;;;;265.13;256.53;;;6.80;91.70;;;;;;4965033;28;20455;-80
2023/03/11 09:36:24;;;;;;;226.67;219.33;;;6.60;92.60;;;;;;4961081;28;20464;-83
2023/03/11 09:38:50;;;;;;;188.33;182.13;;;7.30;93.00;;;;;;4955235;28;20475;-80
2023/03/11 09:41:29;;;;;;;151.53;146.43;;;7.30;90.40;;;;;;4954863;29;20465;-80
2023/03/11 09:44:09;;;;;;;122.23;118.17;;;7.80;89.20;;;;;;4965620;28;20451;-81
2023/03/11 09:47:09;;;;;;;85.23;82.23;;;8.00;78.40;;;;;;4975008;28;20573;-80
2023/03/11 09:49:47;;;;;;;60.40;58.20;;;7.90;85.20;;;;;;4958018;28;20455;-80
2023/03/11 09:52:16;;;;;;;37.47;36.00;;;7.70;66.00;;;;;;4954489;29;20466;-81
2023/03/11 09:54:45;;;;;;;29.10;27.90;;;7.20;58.00;;;;;;4970621;28;20558;-80
2023/03/11 09:57:20;;;;;;;22.73;21.73;;;7.30;57.80;;;;;;4973991;28;20458;-81
2023/03/11 09:59:48;;;;;;;18.63;17.83;;;7.10;61.20;;;;;;4973790;28;20909;-80
2023/03/11 10:02:18;;;;;;;16.20;15.00;;;6.50;70.00;;;;;;4964575;28;20451;-81
2023/03/11 10:04:54;;;;;;;14.20;13.50;;;6.30;71.70;;;;;;4973423;28;20487;-81
2023/03/11 10:07:30;;;;;;;13.63;12.93;;;6.80;69.10;;;;;;4958288;28;20552;-82
2023/03/11 10:09:58;;;;;;;12.87;12.20;;;7.80;66.00;;;;;;4954602;28;20470;-80
2023/03/11 10:12:40;;;;;;;11.87;11.27;;;8.00;58.40;;;;;;4953553;28;21015;-81
2023/03/11 10:15:23;;;;;;;10.40;9.80;;;7.80;59.00;;;;;;4965025;28;21005;-82
2023/03/11 10:18:16;;;;;;;10.20;9.60;;;7.60;58.40;;;;;;4962849;28;20466;-80
2023/03/11 10:20:52;;;;;;;8.70;8.20;;;7.70;63.80;;;;;;4973112;28;21030;-80
2023/03/11 10:23:27;;;;;;;8.03;7.53;;;7.70;62.30;;;;;;4972980;28;20824;-80
2023/03/11 10:26:02;;;;;;;7.27;6.77;;;7.70;58.60;;;;;;4972513;28;20490;-82
2023/03/11 10:28:36;;;;;;;7.50;7.00;;;8.20;53.80;;;;;;4970787;28;20886;-80
2023/03/11 10:31:07;;;;;;;6.10;5.70;;;8.10;60.30;;;;;;4970057;28;20466;-80
2023/03/11 11:25:59;;;;;;;4.00;3.50;;;9.50;45.10;;;;;;5110634;23;20468;-94
2023/03/11 12:10:01;;;;;;;3.90;2.80;;;12.70;20.20;;;;;;5201869;23;20496;-86
2023/03/11 12:12:32;;;;;;;3.80;2.47;;;12.30;23.90;;;;;;4986291;28;20459;-83
2023/03/11 12:15:06;;;;;;;4.40;2.67;;;12.00;23.50;;;;;;4981478;28;20448;-83
2023/03/11 12:17:37;;;;;;;3.70;2.10;;;12.30;25.20;;;;;;4981817;28;20568;-85
2023/03/11 12:20:12;;;;;;;3.50;1.70;;;12.10;18.50;;;;;;4980296;28;20469;-85
2023/03/11 12:23:09;;;;;;;4.57;3.17;;;12.30;14.60;;;;;;4979483;28;20250;-85
2023/03/11 12:28:35;;;;;;;3.70;2.00;;;12.90;22.40;;;;;;5038687;23;20480;-96
2023/03/11 12:31:07;;;;;;;3.67;2.10;;;12.90;21.90;;;;;;5033849;28;20448;-96
2023/03/11 12:33:40;;;;;;;5.03;2.50;;;12.40;25.30;;;;;;5029415;28;20439;-95
2023/03/11 12:36:26;;;;;;;3.70;1.87;;;11.10;26.70;;;;;;5008639;28;20431;-96
2023/03/11 12:38:54;;;;;;;3.70;1.90;;;10.70;27.30;;;;;;5011816;28;20451;-95
2023/03/11 12:41:37;;;;;;;3.77;1.80;;;10.50;28.90;;;;;;5018602;28;20449;-92
2023/03/11 12:44:42;;;;;;;3.70;2.00;;;10.80;30.90;;;;;;4998521;28;20493;-95
2023/03/11 12:47:23;;;;;;;4.33;1.60;;;11.10;27.80;;;;;;5299434;23;20875;-85
2023/03/11 12:49:53;;;;;;;5.23;1.73;;;12.00;24.80;;;;;;5006703;28;20438;-85
2023/03/11 12:52:33;;;;;;;6.50;1.67;;;11.70;19.50;;;;;;5008018;28;20460;-83
2023/03/11 12:55:30;;;;;;;7.40;1.70;;;12.60;21.70;;;;;;5005120;28;20454;-84
2023/03/11 12:58:20;;;;;;;7.93;1.80;;;13.10;22.10;;;;;;5003078;28;20478;-84
2023/03/11 13:01:03;;;;;;;4.30;1.57;;;13.30;19.40;;;;;;4962548;28;20450;-84
2023/03/11 13:03:41;;;;;;;9.47;1.70;;;13.50;21.20;;;;;;5002768;28;20475;-84
2023/03/11 13:06:47;;;;;;;4.30;1.40;;;12.30;10.90;;;;;;4996420;28;20500;-85
2023/03/11 13:09:16;;;;;;;6.37;1.43;;;12.10;18.40;;;;;;4995941;28;20472;-82
2023/03/11 13:11:47;;;;;;;6.27;1.80;;;11.90;21.80;;;;;;5002859;28;20521;-84
2023/03/11 13:14:26;;;;;;;7.60;2.30;;;11.40;22.50;;;;;;5003570;28;20507;-84
2023/03/11 13:16:56;;;;;;;11.30;4.00;;;11.50;24.20;;;;;;5003705;28;20541;-81
2023/03/11 13:33:15;;;;;;;4.53;1.30;;;11.30;23.20;;;;;;6120484;22;2555067;-86
2023/03/11 13:36:10;;;;;;;6.83;1.57;;;11.10;27.80;;;;;;6263223;22;20167;-89
2023/03/11 13:39:19;;;;;;;10.50;1.53;;;11.10;24.30;;;;;;6261963;22;20475;-86
2023/03/11 13:44:22;;;;;;;9.53;1.63;;;11.30;25.50;;;;;;6193763;22;20428;-83
2023/03/11 13:46:53;;;;;;;7.00;1.90;;;10.80;27.50;;;;;;6252675;22;20422;-83
2023/03/11 13:49:30;;;;;;;6.00;1.70;;;10.50;28.30;;;;;;6234926;22;20436;-83
2023/03/11 13:51:58;;;;;;;5.30;1.40;;;9.90;31.30;;;;;;6230600;23;20916;-85
2023/03/11 13:54:34;;;;;;;15.33;1.53;;;9.30;33.00;;;;;;6231746;23;20914;-85
2023/03/11 13:57:03;;;;;;;7.63;2.00;;;9.00;35.10;;;;;;6231231;23;20438;-86
2023/03/11 13:59:32;;;;;;;9.80;2.00;;;8.90;35.30;;;;;;6231647;22;20435;-86
2023/03/11 14:02:01;;;;;;;9.47;1.50;;;8.70;38.70;;;;;;6231530;23;20514;-87
2023/03/11 14:04:32;;;;;;;6.97;1.67;;;8.00;35.60;;;;;;6232557;22;20412;-88
2023/03/11 14:10:27;;;;;;;21.23;2.77;;;7.50;40.00;;;;;;6139643;23;20398;-87
2023/03/11 14:13:15;;;;;;;8.23;2.13;;;7.30;37.40;;;;;;6218598;23;20418;-86
2023/03/11 14:15:51;;;;;;;5.60;1.57;;;7.40;40.60;;;;;;6232964;23;20399;-88
2023/03/11 14:39:03;;;;;;;8.70;1.90;;;8.00;37.90;;;;;;6185099;23;20478;-86
2023/03/11 14:41:30;;;;;;;5.10;1.57;;;7.40;39.70;;;;;;6194682;23;20475;-86
2023/03/11 14:44:03;;;;;;;5.00;1.47;;;7.10;42.40;;;;;;6199051;23;20416;-93
2023/03/11 14:47:06;;;;;;;7.40;2.27;;;7.10;51.00;;;;;;6198431;23;20417;-92
2023/03/11 14:49:44;;;;;;;;;;;;;;;;;;;;;
2023/03/11 15:24:36;;;;;;;12.30;1.93;;;9.20;33.70;;;;;;6269698;22;21072;-86
2023/03/11 15:27:06;;;;;;;6.37;1.20;;;9.40;33.00;;;;;;6285290;22;20927;-86
2023/03/11 15:29:51;;;;;;;5.90;2.10;;;9.60;33.10;;;;;;6254454;22;20434;-86
2023/03/11 15:42:39;;;;;;;22.93;10.17;;;10.00;27.00;;;;;;6255602;22;20472;-85
2023/03/11 16:27:19;;;;;;;7.77;1.90;;;9.60;33.50;;;;;;6195466;22;20430;-85
2023/03/11 16:29:46;;;;;;;10.40;1.67;;;9.70;31.20;;;;;;6244195;23;20411;-85
2023/03/11 16:32:38;;;;;;;6.80;1.40;;;9.50;30.80;;;;;;6255329;23;20468;-84
2023/03/11 16:35:14;;;;;;;9.37;1.77;;;9.60;30.20;;;;;;6161964;23;20492;-84
2023/03/11 16:49:42;;;;;;;5.67;1.53;;;10.10;25.40;;;;;;6219685;22;20524;-87
2023/03/11 16:52:09;;;;;;;5.50;1.60;;;10.10;24.70;;;;;;6285464;22;20444;-86
2023/03/11 16:54:36;;;;;;;4.43;1.20;;;10.10;23.80;;;;;;6275419;22;20497;-86
2023/03/11 16:57:03;;;;;;;8.13;2.03;;;10.20;23.50;;;;;;6285632;22;20739;-87
2023/03/11 16:59:30;;;;;;;6.33;1.70;;;9.80;25.40;;;;;;6255230;22;20435;-83
2023/03/11 17:01:59;;;;;;;9.30;1.70;;;9.10;27.10;;;;;;6254147;23;20493;-83
2023/03/11 17:04:26;;;;;;;8.33;1.50;;;8.90;28.30;;;;;;6256181;23;20497;-83
2023/03/11 17:06:54;;;;;;;9.73;1.60;;;8.40;29.60;;;;;;6254569;23;20415;-83
2023/03/11 17:23:05;;;;;;;13.53;4.27;;;4.70;54.20;;;;;;6263647;22;20441;-81
2023/03/11 17:25:34;;;;;;;5.37;1.90;;;4.30;60.20;;;;;;6268114;22;20418;-82
2023/03/11 17:28:05;;;;;;;5.23;2.00;;;4.00;63.50;;;;;;6273092;22;20485;-82
2023/03/11 17:30:31;;;;;;;5.50;1.80;;;3.80;69.90;;;;;;6252733;23;20918;-83
2023/03/11 17:32:59;;;;;;;7.20;1.70;;;3.50;80.70;;;;;;6254261;23;20404;-83
2023/03/11 17:35:26;;;;;;;10.70;1.93;;;3.20;88.80;;;;;;6254216;23;20411;-83